sensor_id;sensor_type;location;lat;lon;timestamp;P1;durP1;ratioP1;P2;durP2;ratioP2
66741;SDS011;53654;54.152;19.432;2023-08-06T00:00:49;4.30;;;2.80;;
66741;SDS011;53654;54.152;19.432;2023-08-06T00:03:37;3.10;;;2.80;;
66741;SDS011;53654;54.152;19.432;2023-08-06T00:06:06;4.00;;;2.90;;
66741;SDS011;53654;54.152;19.432;2023-08-06T00:08:34;4.10;;;2.90;;
66741;SDS011;53654;54.152;19.432;2023-08-06T00:11:02;4.20;;;3.00;;
66741;SDS011;53654;54.152;19.432;2023-08-06T00:13:30;4.50;;;3.00;;
66741;SDS011;53654;54.152;19.432;2023-08-06T00:16:08;4.00;;;3.00;;
66741;SDS011;53654;54.152;19.432;2023-08-06T00:18:40;3.70;;;2.90;;
66741;SDS011;53654;54.152;19.432;2023-08-06T00:21:08;4.30;;;3.20;;
66741;SDS011;53654;54.152;19.432;2023-08-06T00:23:36;4.40;;;3.10;;
66741;SDS011;53654;54.152;19.432;2023-08-06T00:26:05;4.40;;;3.10;;
66741;SDS011;53654;54.152;19.432;2023-08-06T00:28:33;3.90;;;3.00;;
66741;SDS011;53654;54.152;19.432;2023-08-06T00:31:01;4.40;;;3.10;;
66741;SDS011;53654;54.152;19.432;2023-08-06T00:33:29;3.70;;;3.10;;
66741;SDS011;53654;54.152;19.432;2023-08-06T00:35:58;3.50;;;3.10;;
66741;SDS011;53654;54.152;19.432;2023-08-06T00:38:26;3.90;;;3.20;;
66741;SDS011;53654;54.152;19.432;2023-08-06T00:40:54;3.40;;;3.10;;
66741;SDS011;53654;54.152;19.432;2023-08-06T00:43:22;3.70;;;3.30;;
66741;SDS011;53654;54.152;19.432;2023-08-06T00:45:50;3.80;;;3.40;;
66741;SDS011;53654;54.152;19.432;2023-08-06T00:48:18;4.50;;;3.20;;
66741;SDS011;53654;54.152;19.432;2023-08-06T00:50:47;4.30;;;3.20;;
66741;SDS011;53654;54.152;19.432;2023-08-06T00:53:15;5.60;;;3.40;;
66741;SDS011;53654;54.152;19.432;2023-08-06T00:55:44;4.00;;;3.60;;
66741;SDS011;53654;54.152;19.432;2023-08-06T00:58:13;3.70;;;3.30;;
66741;SDS011;53654;54.152;19.432;2023-08-06T01:00:43;5.00;;;3.60;;
66741;SDS011;53654;54.152;19.432;2023-08-06T01:03:11;3.80;;;3.40;;
66741;SDS011;53654;54.152;19.432;2023-08-06T01:05:39;3.70;;;3.30;;
66741;SDS011;53654;54.152;19.432;2023-08-06T01:13:54;4.30;;;3.40;;
66741;SDS011;53654;54.152;19.432;2023-08-06T01:16:34;4.30;;;3.40;;
66741;SDS011;53654;54.152;19.432;2023-08-06T01:19:05;4.40;;;3.60;;
66741;SDS011;53654;54.152;19.432;2023-08-06T01:21:43;4.10;;;3.70;;
66741;SDS011;53654;54.152;19.432;2023-08-06T01:24:11;4.40;;;3.80;;
66741;SDS011;53654;54.152;19.432;2023-08-06T01:26:44;4.50;;;3.70;;
66741;SDS011;53654;54.152;19.432;2023-08-06T01:29:20;5.10;;;3.80;;
66741;SDS011;53654;54.152;19.432;2023-08-06T01:31:52;4.90;;;3.90;;
66741;SDS011;53654;54.152;19.432;2023-08-06T01:34:23;4.30;;;4.00;;
66741;SDS011;53654;54.152;19.432;2023-08-06T01:36:53;4.50;;;4.00;;
66741;SDS011;53654;54.152;19.432;2023-08-06T01:39:21;4.30;;;3.90;;
66741;SDS011;53654;54.152;19.432;2023-08-06T01:41:50;4.60;;;4.20;;
66741;SDS011;53654;54.152;19.432;2023-08-06T01:44:18;5.30;;;4.10;;
66741;SDS011;53654;54.152;19.432;2023-08-06T01:46:46;5.40;;;4.40;;
66741;SDS011;53654;54.152;19.432;2023-08-06T01:49:15;5.90;;;4.60;;
66741;SDS011;53654;54.152;19.432;2023-08-06T01:51:43;5.40;;;4.50;;
66741;SDS011;53654;54.152;19.432;2023-08-06T01:54:11;5.70;;;4.60;;
66741;SDS011;53654;54.152;19.432;2023-08-06T01:56:39;5.10;;;4.60;;
66741;SDS011;53654;54.152;19.432;2023-08-06T01:59:07;5.60;;;5.00;;
66741;SDS011;53654;54.152;19.432;2023-08-06T02:01:36;5.30;;;4.90;;
66741;SDS011;53654;54.152;19.432;2023-08-06T02:04:04;6.00;;;5.40;;
66741;SDS011;53654;54.152;19.432;2023-08-06T02:06:32;6.40;;;5.10;;
66741;SDS011;53654;54.152;19.432;2023-08-06T02:09:00;5.80;;;5.30;;
66741;SDS011;53654;54.152;19.432;2023-08-06T02:11:28;8.50;;;6.40;;
66741;SDS011;53654;54.152;19.432;2023-08-06T02:13:56;6.50;;;5.50;;
66741;SDS011;53654;54.152;19.432;2023-08-06T02:16:25;7.60;;;5.70;;
66741;SDS011;53654;54.152;19.432;2023-08-06T02:18:53;6.40;;;5.80;;
66741;SDS011;53654;54.152;19.432;2023-08-06T02:21:21;5.90;;;5.40;;
66741;SDS011;53654;54.152;19.432;2023-08-06T02:23:49;6.20;;;5.70;;
66741;SDS011;53654;54.152;19.432;2023-08-06T02:26:17;6.20;;;5.60;;
66741;SDS011;53654;54.152;19.432;2023-08-06T02:28:45;6.10;;;5.50;;
66741;SDS011;53654;54.152;19.432;2023-08-06T02:31:14;5.50;;;5.00;;
66741;SDS011;53654;54.152;19.432;2023-08-06T02:33:42;5.70;;;5.10;;
66741;SDS011;53654;54.152;19.432;2023-08-06T02:36:11;5.70;;;5.20;;
66741;SDS011;53654;54.152;19.432;2023-08-06T02:38:39;5.10;;;4.60;;
66741;SDS011;53654;54.152;19.432;2023-08-06T02:41:07;5.10;;;4.60;;
66741;SDS011;53654;54.152;19.432;2023-08-06T02:43:35;6.00;;;4.80;;
66741;SDS011;53654;54.152;19.432;2023-08-06T02:46:03;5.20;;;4.00;;
66741;SDS011;53654;54.152;19.432;2023-08-06T02:48:32;4.50;;;4.10;;
66741;SDS011;53654;54.152;19.432;2023-08-06T02:51:00;4.20;;;3.80;;
66741;SDS011;53654;54.152;19.432;2023-08-06T02:53:30;3.60;;;3.30;;
66741;SDS011;53654;54.152;19.432;2023-08-06T02:56:01;3.50;;;3.20;;
66741;SDS011;53654;54.152;19.432;2023-08-06T02:58:37;2.30;;;2.20;;
66741;SDS011;53654;54.152;19.432;2023-08-06T03:01:15;2.70;;;2.50;;
66741;SDS011;53654;54.152;19.432;2023-08-06T03:03:48;2.30;;;2.20;;
66741;SDS011;53654;54.152;19.432;2023-08-06T03:06:22;2.10;;;2.00;;
66741;SDS011;53654;54.152;19.432;2023-08-06T03:08:52;1.80;;;1.70;;
66741;SDS011;53654;54.152;19.432;2023-08-06T03:11:20;1.90;;;1.80;;
66741;SDS011;53654;54.152;19.432;2023-08-06T03:13:50;1.60;;;1.50;;
66741;SDS011;53654;54.152;19.432;2023-08-06T03:16:18;1.70;;;1.60;;
66741;SDS011;53654;54.152;19.432;2023-08-06T03:18:46;1.60;;;1.50;;
66741;SDS011;53654;54.152;19.432;2023-08-06T03:21:15;1.50;;;1.40;;
66741;SDS011;53654;54.152;19.432;2023-08-06T03:23:46;1.50;;;1.40;;
66741;SDS011;53654;54.152;19.432;2023-08-06T03:26:15;1.50;;;1.50;;
66741;SDS011;53654;54.152;19.432;2023-08-06T03:28:44;1.60;;;1.50;;
66741;SDS011;53654;54.152;19.432;2023-08-06T03:31:13;1.80;;;1.50;;
66741;SDS011;53654;54.152;19.432;2023-08-06T03:33:43;1.60;;;1.50;;
66741;SDS011;53654;54.152;19.432;2023-08-06T03:36:15;2.00;;;1.60;;
66741;SDS011;53654;54.152;19.432;2023-08-06T03:38:43;1.60;;;1.50;;
66741;SDS011;53654;54.152;19.432;2023-08-06T03:41:13;1.90;;;1.80;;
66741;SDS011;53654;54.152;19.432;2023-08-06T03:43:41;1.60;;;1.50;;
66741;SDS011;53654;54.152;19.432;2023-08-06T03:46:12;1.70;;;1.60;;
66741;SDS011;53654;54.152;19.432;2023-08-06T03:48:41;1.80;;;1.70;;
66741;SDS011;53654;54.152;19.432;2023-08-06T03:51:09;1.60;;;1.50;;
66741;SDS011;53654;54.152;19.432;2023-08-06T03:53:38;1.60;;;1.50;;
66741;SDS011;53654;54.152;19.432;2023-08-06T03:56:06;1.70;;;1.60;;
66741;SDS011;53654;54.152;19.432;2023-08-06T03:58:35;1.70;;;1.60;;
66741;SDS011;53654;54.152;19.432;2023-08-06T04:01:03;1.80;;;1.60;;
66741;SDS011;53654;54.152;19.432;2023-08-06T04:03:35;1.90;;;1.80;;
66741;SDS011;53654;54.152;19.432;2023-08-06T04:06:04;2.10;;;1.90;;
66741;SDS011;53654;54.152;19.432;2023-08-06T04:08:32;1.90;;;1.80;;
66741;SDS011;53654;54.152;19.432;2023-08-06T04:11:00;2.00;;;1.90;;
66741;SDS011;53654;54.152;19.432;2023-08-06T04:13:29;2.20;;;1.70;;
66741;SDS011;53654;54.152;19.432;2023-08-06T04:16:01;2.00;;;1.90;;
66741;SDS011;53654;54.152;19.432;2023-08-06T04:18:30;2.10;;;2.00;;
66741;SDS011;53654;54.152;19.432;2023-08-06T04:20:58;2.10;;;2.00;;
66741;SDS011;53654;54.152;19.432;2023-08-06T04:23:26;2.20;;;2.10;;
66741;SDS011;53654;54.152;19.432;2023-08-06T04:25:58;2.20;;;2.10;;
66741;SDS011;53654;54.152;19.432;2023-08-06T04:28:29;2.10;;;2.00;;
66741;SDS011;53654;54.152;19.432;2023-08-06T04:30:58;2.30;;;2.10;;
66741;SDS011;53654;54.152;19.432;2023-08-06T04:33:27;2.00;;;1.90;;
66741;SDS011;53654;54.152;19.432;2023-08-06T04:35:57;1.90;;;1.80;;
66741;SDS011;53654;54.152;19.432;2023-08-06T04:38:26;2.20;;;2.10;;
66741;SDS011;53654;54.152;19.432;2023-08-06T04:40:55;1.90;;;1.80;;
66741;SDS011;53654;54.152;19.432;2023-08-06T04:43:24;2.00;;;1.90;;
66741;SDS011;53654;54.152;19.432;2023-08-06T04:45:53;2.00;;;1.90;;
66741;SDS011;53654;54.152;19.432;2023-08-06T04:48:22;1.90;;;1.80;;
66741;SDS011;53654;54.152;19.432;2023-08-06T04:50:50;2.40;;;2.20;;
66741;SDS011;53654;54.152;19.432;2023-08-06T04:53:19;2.20;;;2.10;;
66741;SDS011;53654;54.152;19.432;2023-08-06T04:55:47;2.50;;;2.30;;
66741;SDS011;53654;54.152;19.432;2023-08-06T04:58:15;2.10;;;2.00;;
66741;SDS011;53654;54.152;19.432;2023-08-06T05:00:43;2.00;;;1.90;;
66741;SDS011;53654;54.152;19.432;2023-08-06T05:03:11;2.10;;;1.90;;
66741;SDS011;53654;54.152;19.432;2023-08-06T05:05:40;1.90;;;1.80;;
66741;SDS011;53654;54.152;19.432;2023-08-06T05:08:13;1.90;;;1.80;;
66741;SDS011;53654;54.152;19.432;2023-08-06T05:10:44;1.90;;;1.80;;
66741;SDS011;53654;54.152;19.432;2023-08-06T05:13:13;1.60;;;1.50;;
66741;SDS011;53654;54.152;19.432;2023-08-06T05:15:41;1.50;;;1.50;;
66741;SDS011;53654;54.152;19.432;2023-08-06T05:18:10;1.50;;;1.40;;
66741;SDS011;53654;54.152;19.432;2023-08-06T05:20:40;1.60;;;1.50;;
66741;SDS011;53654;54.152;19.432;2023-08-06T05:23:09;1.40;;;1.40;;
66741;SDS011;53654;54.152;19.432;2023-08-06T05:25:37;1.80;;;1.70;;
66741;SDS011;53654;54.152;19.432;2023-08-06T05:28:06;1.60;;;1.50;;
66741;SDS011;53654;54.152;19.432;2023-08-06T05:30:38;1.30;;;1.30;;
66741;SDS011;53654;54.152;19.432;2023-08-06T05:33:07;1.50;;;1.40;;
66741;SDS011;53654;54.152;19.432;2023-08-06T05:35:35;1.60;;;1.50;;
66741;SDS011;53654;54.152;19.432;2023-08-06T05:38:03;1.30;;;1.30;;
66741;SDS011;53654;54.152;19.432;2023-08-06T05:40:32;1.50;;;1.40;;
66741;SDS011;53654;54.152;19.432;2023-08-06T05:43:01;2.20;;;1.50;;
66741;SDS011;53654;54.152;19.432;2023-08-06T05:45:30;1.40;;;1.30;;
66741;SDS011;53654;54.152;19.432;2023-08-06T05:47:58;2.30;;;1.70;;
66741;SDS011;53654;54.152;19.432;2023-08-06T05:50:26;1.60;;;1.40;;
66741;SDS011;53654;54.152;19.432;2023-08-06T05:52:54;1.80;;;1.70;;
66741;SDS011;53654;54.152;19.432;2023-08-06T05:55:24;1.60;;;1.40;;
66741;SDS011;53654;54.152;19.432;2023-08-06T05:57:52;1.80;;;1.60;;
66741;SDS011;53654;54.152;19.432;2023-08-06T06:00:21;1.70;;;1.60;;
66741;SDS011;53654;54.152;19.432;2023-08-06T06:02:50;1.70;;;1.60;;
66741;SDS011;53654;54.152;19.432;2023-08-06T06:05:18;2.40;;;2.10;;
66741;SDS011;53654;54.152;19.432;2023-08-06T06:07:46;2.00;;;1.90;;
66741;SDS011;53654;54.152;19.432;2023-08-06T06:10:14;2.40;;;2.20;;
66741;SDS011;53654;54.152;19.432;2023-08-06T06:12:42;3.50;;;3.20;;
66741;SDS011;53654;54.152;19.432;2023-08-06T06:15:11;2.90;;;2.70;;
66741;SDS011;53654;54.152;19.432;2023-08-06T06:17:39;2.90;;;2.70;;
66741;SDS011;53654;54.152;19.432;2023-08-06T06:20:07;3.00;;;2.80;;
66741;SDS011;53654;54.152;19.432;2023-08-06T06:22:35;3.50;;;3.30;;
66741;SDS011;53654;54.152;19.432;2023-08-06T06:25:04;3.50;;;3.20;;
66741;SDS011;53654;54.152;19.432;2023-08-06T06:27:33;3.50;;;3.20;;
66741;SDS011;53654;54.152;19.432;2023-08-06T06:30:01;3.80;;;3.60;;
66741;SDS011;53654;54.152;19.432;2023-08-06T06:32:29;3.90;;;3.60;;
66741;SDS011;53654;54.152;19.432;2023-08-06T06:34:57;3.60;;;3.40;;
66741;SDS011;53654;54.152;19.432;2023-08-06T06:37:26;4.00;;;3.70;;
66741;SDS011;53654;54.152;19.432;2023-08-06T06:39:54;4.50;;;4.20;;
66741;SDS011;53654;54.152;19.432;2023-08-06T06:42:23;4.60;;;4.20;;
66741;SDS011;53654;54.152;19.432;2023-08-06T06:44:51;4.70;;;4.30;;
66741;SDS011;53654;54.152;19.432;2023-08-06T06:47:19;4.80;;;4.40;;
66741;SDS011;53654;54.152;19.432;2023-08-06T06:49:48;4.70;;;4.40;;
66741;SDS011;53654;54.152;19.432;2023-08-06T06:52:16;5.40;;;5.10;;
66741;SDS011;53654;54.152;19.432;2023-08-06T06:54:44;4.90;;;4.60;;
66741;SDS011;53654;54.152;19.432;2023-08-06T06:57:12;5.30;;;4.90;;
66741;SDS011;53654;54.152;19.432;2023-08-06T06:59:40;5.90;;;5.50;;
66741;SDS011;53654;54.152;19.432;2023-08-06T07:02:09;5.40;;;5.00;;
66741;SDS011;53654;54.152;19.432;2023-08-06T07:04:37;5.60;;;5.20;;
66741;SDS011;53654;54.152;19.432;2023-08-06T07:07:05;5.70;;;5.30;;
66741;SDS011;53654;54.152;19.432;2023-08-06T07:09:33;5.40;;;5.00;;
66741;SDS011;53654;54.152;19.432;2023-08-06T07:12:01;5.60;;;5.30;;
66741;SDS011;53654;54.152;19.432;2023-08-06T07:14:30;5.70;;;5.30;;
66741;SDS011;53654;54.152;19.432;2023-08-06T07:16:58;5.60;;;5.30;;
66741;SDS011;53654;54.152;19.432;2023-08-06T07:19:27;5.80;;;5.40;;
66741;SDS011;53654;54.152;19.432;2023-08-06T07:21:55;9.30;;;8.60;;
66741;SDS011;53654;54.152;19.432;2023-08-06T07:24:24;6.20;;;5.80;;
66741;SDS011;53654;54.152;19.432;2023-08-06T07:26:52;6.10;;;5.70;;
66741;SDS011;53654;54.152;19.432;2023-08-06T07:29:21;6.60;;;6.10;;
66741;SDS011;53654;54.152;19.432;2023-08-06T07:31:50;6.60;;;6.10;;
66741;SDS011;53654;54.152;19.432;2023-08-06T07:34:19;7.30;;;6.80;;
66741;SDS011;53654;54.152;19.432;2023-08-06T07:36:48;7.40;;;6.90;;
66741;SDS011;53654;54.152;19.432;2023-08-06T07:39:16;7.20;;;6.70;;
66741;SDS011;53654;54.152;19.432;2023-08-06T07:41:48;7.40;;;6.80;;
66741;SDS011;53654;54.152;19.432;2023-08-06T07:44:17;9.00;;;8.40;;
66741;SDS011;53654;54.152;19.432;2023-08-06T07:46:45;7.40;;;6.90;;
66741;SDS011;53654;54.152;19.432;2023-08-06T07:49:13;7.60;;;7.10;;
66741;SDS011;53654;54.152;19.432;2023-08-06T07:51:42;7.50;;;6.90;;
66741;SDS011;53654;54.152;19.432;2023-08-06T07:54:10;7.70;;;7.10;;
66741;SDS011;53654;54.152;19.432;2023-08-06T07:56:38;7.60;;;7.00;;
66741;SDS011;53654;54.152;19.432;2023-08-06T07:59:07;7.80;;;7.30;;
66741;SDS011;53654;54.152;19.432;2023-08-06T08:01:35;8.00;;;7.40;;
66741;SDS011;53654;54.152;19.432;2023-08-06T08:04:03;8.30;;;7.70;;
66741;SDS011;53654;54.152;19.432;2023-08-06T08:06:33;8.20;;;7.60;;
66741;SDS011;53654;54.152;19.432;2023-08-06T08:09:01;8.80;;;8.20;;
66741;SDS011;53654;54.152;19.432;2023-08-06T08:11:29;8.70;;;8.10;;
66741;SDS011;53654;54.152;19.432;2023-08-06T08:13:57;9.10;;;8.40;;
66741;SDS011;53654;54.152;19.432;2023-08-06T08:16:25;9.10;;;8.50;;
66741;SDS011;53654;54.152;19.432;2023-08-06T08:18:54;9.30;;;8.70;;
66741;SDS011;53654;54.152;19.432;2023-08-06T08:21:22;9.10;;;8.40;;
66741;SDS011;53654;54.152;19.432;2023-08-06T08:23:52;9.30;;;8.70;;
66741;SDS011;53654;54.152;19.432;2023-08-06T08:26:20;9.30;;;8.50;;
66741;SDS011;53654;54.152;19.432;2023-08-06T08:28:48;9.10;;;8.40;;
66741;SDS011;53654;54.152;19.432;2023-08-06T08:31:17;9.90;;;9.10;;
66741;SDS011;53654;54.152;19.432;2023-08-06T08:33:45;9.90;;;9.20;;
66741;SDS011;53654;54.152;19.432;2023-08-06T08:36:14;10.20;;;9.40;;
66741;SDS011;53654;54.152;19.432;2023-08-06T08:38:42;10.80;;;9.80;;
66741;SDS011;53654;54.152;19.432;2023-08-06T08:41:10;10.30;;;9.50;;
66741;SDS011;53654;54.152;19.432;2023-08-06T08:43:38;10.80;;;9.80;;
66741;SDS011;53654;54.152;19.432;2023-08-06T08:46:09;10.70;;;9.90;;
66741;SDS011;53654;54.152;19.432;2023-08-06T08:48:39;10.80;;;10.00;;
66741;SDS011;53654;54.152;19.432;2023-08-06T08:51:07;10.70;;;10.00;;
66741;SDS011;53654;54.152;19.432;2023-08-06T08:53:42;11.30;;;10.30;;
66741;SDS011;53654;54.152;19.432;2023-08-06T08:56:12;11.90;;;10.90;;
66741;SDS011;53654;54.152;19.432;2023-08-06T08:58:42;11.30;;;10.40;;
66741;SDS011;53654;54.152;19.432;2023-08-06T09:01:11;11.30;;;10.50;;
66741;SDS011;53654;54.152;19.432;2023-08-06T09:03:39;12.40;;;11.40;;
66741;SDS011;53654;54.152;19.432;2023-08-06T09:06:08;11.60;;;10.80;;
66741;SDS011;53654;54.152;19.432;2023-08-06T09:08:41;14.10;;;13.00;;
66741;SDS011;53654;54.152;19.432;2023-08-06T09:11:15;12.70;;;11.70;;
66741;SDS011;53654;54.152;19.432;2023-08-06T09:13:44;13.00;;;12.00;;
66741;SDS011;53654;54.152;19.432;2023-08-06T09:16:12;13.20;;;12.30;;
66741;SDS011;53654;54.152;19.432;2023-08-06T09:18:41;13.50;;;12.50;;
66741;SDS011;53654;54.152;19.432;2023-08-06T09:21:13;13.70;;;12.70;;
66741;SDS011;53654;54.152;19.432;2023-08-06T09:23:42;14.20;;;13.20;;
66741;SDS011;53654;54.152;19.432;2023-08-06T09:26:11;14.10;;;13.00;;
66741;SDS011;53654;54.152;19.432;2023-08-06T09:28:43;13.80;;;12.80;;
66741;SDS011;53654;54.152;19.432;2023-08-06T09:31:11;14.20;;;13.10;;
66741;SDS011;53654;54.152;19.432;2023-08-06T09:33:40;14.30;;;13.10;;
66741;SDS011;53654;54.152;19.432;2023-08-06T09:36:11;13.80;;;12.80;;
66741;SDS011;53654;54.152;19.432;2023-08-06T09:38:40;14.40;;;13.20;;
66741;SDS011;53654;54.152;19.432;2023-08-06T09:41:09;14.10;;;13.10;;
66741;SDS011;53654;54.152;19.432;2023-08-06T09:43:41;14.30;;;13.30;;
66741;SDS011;53654;54.152;19.432;2023-08-06T09:46:13;14.10;;;13.10;;
66741;SDS011;53654;54.152;19.432;2023-08-06T09:48:45;14.10;;;13.00;;
66741;SDS011;53654;54.152;19.432;2023-08-06T09:51:14;14.70;;;13.60;;
66741;SDS011;53654;54.152;19.432;2023-08-06T09:53:43;14.70;;;13.70;;
66741;SDS011;53654;54.152;19.432;2023-08-06T09:56:11;14.00;;;13.00;;
66741;SDS011;53654;54.152;19.432;2023-08-06T09:58:42;15.10;;;14.10;;
66741;SDS011;53654;54.152;19.432;2023-08-06T10:01:11;14.30;;;13.20;;
66741;SDS011;53654;54.152;19.432;2023-08-06T10:03:40;14.90;;;13.80;;
66741;SDS011;53654;54.152;19.432;2023-08-06T10:06:08;16.00;;;14.80;;
66741;SDS011;53654;54.152;19.432;2023-08-06T10:08:38;16.10;;;14.80;;
66741;SDS011;53654;54.152;19.432;2023-08-06T10:11:08;15.10;;;14.10;;
66741;SDS011;53654;54.152;19.432;2023-08-06T10:13:38;14.70;;;13.70;;
66741;SDS011;53654;54.152;19.432;2023-08-06T10:16:07;15.60;;;14.50;;
66741;SDS011;53654;54.152;19.432;2023-08-06T10:18:36;15.80;;;14.40;;
66741;SDS011;53654;54.152;19.432;2023-08-06T10:21:09;14.80;;;13.90;;
66741;SDS011;53654;54.152;19.432;2023-08-06T10:23:39;15.10;;;13.90;;
66741;SDS011;53654;54.152;19.432;2023-08-06T10:26:08;14.90;;;13.70;;
66741;SDS011;53654;54.152;19.432;2023-08-06T10:28:37;15.10;;;10.70;;
66741;SDS011;53654;54.152;19.432;2023-08-06T10:31:06;14.80;;;13.70;;
66741;SDS011;53654;54.152;19.432;2023-08-06T10:33:44;15.10;;;14.00;;
66741;SDS011;53654;54.152;19.432;2023-08-06T10:36:14;14.90;;;13.70;;
66741;SDS011;53654;54.152;19.432;2023-08-06T10:38:47;15.00;;;14.00;;
66741;SDS011;53654;54.152;19.432;2023-08-06T10:44:05;15.30;;;14.10;;
66741;SDS011;53654;54.152;19.432;2023-08-06T10:46:37;16.50;;;15.30;;
66741;SDS011;53654;54.152;19.432;2023-08-06T10:49:06;15.50;;;14.30;;
66741;SDS011;53654;54.152;19.432;2023-08-06T10:51:35;14.50;;;13.40;;
66741;SDS011;53654;54.152;19.432;2023-08-06T10:54:04;15.30;;;14.20;;
66741;SDS011;53654;54.152;19.432;2023-08-06T10:56:32;14.80;;;13.70;;
66741;SDS011;53654;54.152;19.432;2023-08-06T10:59:08;14.70;;;13.60;;
66741;SDS011;53654;54.152;19.432;2023-08-06T11:01:38;13.80;;;12.90;;
66741;SDS011;53654;54.152;19.432;2023-08-06T11:04:07;14.90;;;13.80;;
66741;SDS011;53654;54.152;19.432;2023-08-06T11:06:35;14.10;;;13.00;;
66741;SDS011;53654;54.152;19.432;2023-08-06T11:09:03;13.90;;;12.90;;
66741;SDS011;53654;54.152;19.432;2023-08-06T11:11:32;14.00;;;12.80;;
66741;SDS011;53654;54.152;19.432;2023-08-06T11:14:00;13.70;;;12.60;;
66741;SDS011;53654;54.152;19.432;2023-08-06T11:16:28;13.80;;;12.50;;
66741;SDS011;53654;54.152;19.432;2023-08-06T11:18:56;13.70;;;12.50;;
66741;SDS011;53654;54.152;19.432;2023-08-06T11:21:27;13.60;;;12.50;;
66741;SDS011;53654;54.152;19.432;2023-08-06T11:23:57;13.50;;;12.60;;
66741;SDS011;53654;54.152;19.432;2023-08-06T11:26:26;13.20;;;12.20;;
66741;SDS011;53654;54.152;19.432;2023-08-06T11:28:56;13.40;;;12.40;;
66741;SDS011;53654;54.152;19.432;2023-08-06T11:31:24;13.70;;;12.70;;
66741;SDS011;53654;54.152;19.432;2023-08-06T11:33:53;12.80;;;12.00;;
66741;SDS011;53654;54.152;19.432;2023-08-06T11:36:33;13.20;;;12.30;;
66741;SDS011;53654;54.152;19.432;2023-08-06T11:39:04;13.80;;;12.60;;
66741;SDS011;53654;54.152;19.432;2023-08-06T11:41:36;13.00;;;12.00;;
66741;SDS011;53654;54.152;19.432;2023-08-06T11:44:10;13.20;;;12.20;;
66741;SDS011;53654;54.152;19.432;2023-08-06T11:47:04;12.50;;;11.70;;
66741;SDS011;53654;54.152;19.432;2023-08-06T11:49:44;12.80;;;12.00;;
66741;SDS011;53654;54.152;19.432;2023-08-06T11:52:20;12.80;;;11.90;;
66741;SDS011;53654;54.152;19.432;2023-08-06T11:55:03;12.40;;;11.60;;
66741;SDS011;53654;54.152;19.432;2023-08-06T11:57:39;12.60;;;11.80;;
66741;SDS011;53654;54.152;19.432;2023-08-06T12:02:42;12.90;;;11.90;;
66741;SDS011;53654;54.152;19.432;2023-08-06T12:05:16;12.50;;;11.60;;
66741;SDS011;53654;54.152;19.432;2023-08-06T12:07:48;12.70;;;11.80;;
66741;SDS011;53654;54.152;19.432;2023-08-06T12:10:18;12.60;;;11.60;;
66741;SDS011;53654;54.152;19.432;2023-08-06T12:12:48;12.40;;;11.40;;
66741;SDS011;53654;54.152;19.432;2023-08-06T12:15:17;13.10;;;12.10;;
66741;SDS011;53654;54.152;19.432;2023-08-06T12:17:46;12.70;;;11.60;;
66741;SDS011;53654;54.152;19.432;2023-08-06T12:20:14;13.20;;;12.10;;
66741;SDS011;53654;54.152;19.432;2023-08-06T12:22:43;13.30;;;12.30;;
66741;SDS011;53654;54.152;19.432;2023-08-06T12:25:13;16.20;;;14.70;;
66741;SDS011;53654;54.152;19.432;2023-08-06T12:27:42;15.40;;;14.00;;
66741;SDS011;53654;54.152;19.432;2023-08-06T12:30:11;12.80;;;11.70;;
66741;SDS011;53654;54.152;19.432;2023-08-06T12:32:40;12.30;;;11.10;;
66741;SDS011;53654;54.152;19.432;2023-08-06T12:35:08;12.00;;;11.00;;
66741;SDS011;53654;54.152;19.432;2023-08-06T12:37:36;11.60;;;10.70;;
66741;SDS011;53654;54.152;19.432;2023-08-06T12:40:08;11.80;;;10.80;;
66741;SDS011;53654;54.152;19.432;2023-08-06T12:42:56;12.00;;;10.80;;
66741;SDS011;53654;54.152;19.432;2023-08-06T12:45:26;11.40;;;10.50;;
66741;SDS011;53654;54.152;19.432;2023-08-06T12:47:54;11.50;;;10.60;;
66741;SDS011;53654;54.152;19.432;2023-08-06T12:50:23;11.60;;;10.60;;
66741;SDS011;53654;54.152;19.432;2023-08-06T12:52:51;11.30;;;10.30;;
66741;SDS011;53654;54.152;19.432;2023-08-06T12:55:19;11.70;;;10.70;;
66741;SDS011;53654;54.152;19.432;2023-08-06T12:57:47;11.10;;;10.20;;
66741;SDS011;53654;54.152;19.432;2023-08-06T13:00:26;11.00;;;10.00;;
66741;SDS011;53654;54.152;19.432;2023-08-06T13:02:55;10.80;;;9.90;;
66741;SDS011;53654;54.152;19.432;2023-08-06T13:05:23;11.70;;;10.70;;
66741;SDS011;53654;54.152;19.432;2023-08-06T13:07:53;11.80;;;10.90;;
66741;SDS011;53654;54.152;19.432;2023-08-06T13:10:22;10.70;;;9.80;;
66741;SDS011;53654;54.152;19.432;2023-08-06T13:12:52;11.00;;;10.00;;
66741;SDS011;53654;54.152;19.432;2023-08-06T13:15:21;11.10;;;10.20;;
66741;SDS011;53654;54.152;19.432;2023-08-06T13:17:50;10.40;;;9.60;;
66741;SDS011;53654;54.152;19.432;2023-08-06T13:20:20;10.40;;;9.60;;
66741;SDS011;53654;54.152;19.432;2023-08-06T13:22:49;11.10;;;10.10;;
66741;SDS011;53654;54.152;19.432;2023-08-06T13:25:25;10.90;;;10.00;;
66741;SDS011;53654;54.152;19.432;2023-08-06T13:27:54;11.10;;;10.10;;
66741;SDS011;53654;54.152;19.432;2023-08-06T13:30:25;10.40;;;9.50;;
66741;SDS011;53654;54.152;19.432;2023-08-06T13:32:53;10.10;;;9.40;;
66741;SDS011;53654;54.152;19.432;2023-08-06T13:35:24;10.70;;;9.70;;
66741;SDS011;53654;54.152;19.432;2023-08-06T13:37:52;10.60;;;9.70;;
66741;SDS011;53654;54.152;19.432;2023-08-06T13:40:22;9.90;;;9.00;;
66741;SDS011;53654;54.152;19.432;2023-08-06T13:42:50;10.20;;;9.40;;
66741;SDS011;53654;54.152;19.432;2023-08-06T13:45:19;10.00;;;9.00;;
66741;SDS011;53654;54.152;19.432;2023-08-06T13:47:48;9.50;;;8.60;;
66741;SDS011;53654;54.152;19.432;2023-08-06T13:50:17;9.30;;;8.50;;
66741;SDS011;53654;54.152;19.432;2023-08-06T13:52:45;9.40;;;8.50;;
66741;SDS011;53654;54.152;19.432;2023-08-06T13:55:13;9.40;;;8.60;;
66741;SDS011;53654;54.152;19.432;2023-08-06T13:57:46;9.40;;;8.60;;
66741;SDS011;53654;54.152;19.432;2023-08-06T14:00:14;9.00;;;8.30;;
66741;SDS011;53654;54.152;19.432;2023-08-06T14:02:44;9.40;;;8.50;;
66741;SDS011;53654;54.152;19.432;2023-08-06T14:05:12;9.90;;;8.90;;
66741;SDS011;53654;54.152;19.432;2023-08-06T14:07:41;9.60;;;8.70;;
66741;SDS011;53654;54.152;19.432;2023-08-06T14:10:10;9.40;;;8.60;;
66741;SDS011;53654;54.152;19.432;2023-08-06T14:12:39;9.20;;;8.50;;
66741;SDS011;53654;54.152;19.432;2023-08-06T14:15:08;9.90;;;8.90;;
66741;SDS011;53654;54.152;19.432;2023-08-06T14:17:41;9.90;;;9.00;;
66741;SDS011;53654;54.152;19.432;2023-08-06T14:20:10;9.70;;;8.90;;
66741;SDS011;53654;54.152;19.432;2023-08-06T14:22:42;9.80;;;8.80;;
66741;SDS011;53654;54.152;19.432;2023-08-06T14:25:10;9.50;;;8.70;;
66741;SDS011;53654;54.152;19.432;2023-08-06T14:27:39;9.60;;;8.70;;
66741;SDS011;53654;54.152;19.432;2023-08-06T14:30:08;9.60;;;8.70;;
66741;SDS011;53654;54.152;19.432;2023-08-06T14:32:48;9.70;;;8.90;;
66741;SDS011;53654;54.152;19.432;2023-08-06T14:35:17;9.80;;;8.80;;
66741;SDS011;53654;54.152;19.432;2023-08-06T14:37:45;9.60;;;8.80;;
66741;SDS011;53654;54.152;19.432;2023-08-06T14:40:14;10.40;;;9.60;;
66741;SDS011;53654;54.152;19.432;2023-08-06T14:42:42;9.40;;;8.60;;
66741;SDS011;53654;54.152;19.432;2023-08-06T14:45:10;9.90;;;9.00;;
66741;SDS011;53654;54.152;19.432;2023-08-06T14:47:39;10.40;;;9.50;;
66741;SDS011;53654;54.152;19.432;2023-08-06T14:50:08;9.60;;;8.80;;